Time;durP1;ratioP1;P1;durP2;ratioP2;P2;SDS_P1;SDS_P2;PMS_P1;PMS_P2;Temp;Humidity;BMP_temperature;BMP_pressure;BME280_temperature;BME280_humidity;BME280_pressure;Samples;Min_cycle;Max_cycle;Signal;HPM_P1;HPM_P2
2022/05/05 00:02:21;;;;;;;6.80;5.63;;;;;;;15.13;65.10;101240.22;5008807;28;20237;-52
2022/05/05 00:04:47;;;;;;;5.55;5.10;;;;;;;15.10;65.39;101241.16;5002116;28;20343;-53
2022/05/05 00:07:13;;;;;;;5.72;5.20;;;;;;;15.10;66.11;101237.66;5007865;28;20232;-53
2022/05/05 00:09:40;;;;;;;5.82;5.40;;;;;;;15.06;66.40;101234.16;5004788;28;20293;-52
2022/05/05 00:14:53;;;;;;;6.50;5.82;;;;;;;15.06;67.96;101238.53;5007950;28;20302;-51
2022/05/05 00:17:20;;;;;;;5.72;5.22;;;;;;;15.05;68.57;101232.38;5010814;28;20269;-51
2022/05/05 00:19:46;;;;;;;7.05;6.07;;;;;;;15.05;69.58;101229.75;5009968;28;20233;-53
2022/05/05 00:22:12;;;;;;;6.93;6.28;;;;;;;15.04;70.04;101238.56;4999138;28;20243;-52
2022/05/05 00:24:39;;;;;;;7.22;6.53;;;;;;;15.01;70.68;101230.66;5003784;28;20687;-53
2022/05/05 00:27:08;;;;;;;6.90;5.85;;;;;;;14.96;71.10;101237.78;4997426;28;20233;-52
2022/05/05 00:29:34;;;;;;;6.57;5.85;;;;;;;14.91;72.20;101247.53;5004221;28;20229;-53
2022/05/05 00:32:01;;;;;;;6.68;5.72;;;;;;;14.87;73.17;101246.69;5002227;28;20296;-53
2022/05/05 00:34:28;;;;;;;7.50;6.80;;;;;;;14.98;73.75;101247.44;4998790;28;20239;-52
2022/05/05 00:36:54;;;;;;;6.38;5.88;;;;;;;14.86;74.31;101252.00;5011473;28;20299;-52
2022/05/05 00:39:20;;;;;;;6.68;6.18;;;;;;;14.74;75.41;101251.25;5016098;28;20233;-52
2022/05/05 00:41:47;;;;;;;7.20;6.60;;;;;;;14.64;76.10;101251.34;5008768;28;20731;-52
2022/05/05 00:44:16;;;;;;;8.48;7.40;;;;;;;14.57;76.93;101247.88;5000690;28;20229;-51
2022/05/05 00:46:48;;;;;;;7.72;7.05;;;;;;;14.54;78.81;101245.25;5015577;28;20225;-52
2022/05/05 00:49:14;;;;;;;9.00;7.93;;;;;;;14.47;80.35;101246.19;5003179;28;20268;-53
2022/05/05 00:51:41;;;;;;;9.48;7.13;;;;;;;14.44;81.66;101244.44;5012891;28;20273;-52
2022/05/05 00:54:07;;;;;;;8.32;7.72;;;;;;;14.43;83.42;101262.94;5005321;28;20316;-52
2022/05/05 00:56:34;;;;;;;9.27;8.38;;;;;;;14.42;83.90;101266.47;5000824;28;20319;-52
2022/05/05 00:59:01;;;;;;;8.57;7.72;;;;;;;14.40;82.90;101262.97;5002848;28;20668;-53
2022/05/05 01:01:29;;;;;;;8.27;7.47;;;;;;;14.32;82.25;101266.56;5002158;28;20289;-53
2022/05/05 01:03:55;;;;;;;7.55;6.78;;;;;;;14.17;83.21;101271.94;4993973;28;20938;-52
2022/05/05 01:06:22;;;;;;;7.15;6.63;;;;;;;14.09;83.36;101271.13;5007582;28;20244;-52
2022/05/05 01:08:48;;;;;;;7.15;6.55;;;;;;;14.03;82.31;101271.16;5006675;28;20291;-53
2022/05/05 01:11:15;;;;;;;6.63;6.13;;;;;;;14.11;81.91;101265.81;5005440;28;20271;-52
2022/05/05 01:13:43;;;;;;;6.10;5.60;;;;;;;14.04;82.42;101275.56;4997300;28;20283;-52
2022/05/05 01:16:11;;;;;;;5.65;5.15;;;;;;;13.94;83.15;101280.03;4995342;28;20283;-53
2022/05/05 01:18:39;;;;;;;6.65;6.00;;;;;;;13.84;83.94;101275.69;5001878;28;20237;-51
2022/05/05 01:21:05;;;;;;;7.28;5.43;;;;;;;13.76;85.62;101278.38;5004966;28;20289;-53
2022/05/05 01:23:33;;;;;;;8.43;5.55;;;;;;;13.73;86.24;101275.75;5003138;28;20256;-52
2022/05/05 01:28:46;;;;;;;6.07;5.25;;;;;;;13.61;86.87;101266.09;5002765;28;20232;-53
2022/05/05 01:31:13;;;;;;;8.35;5.95;;;;;;;13.59;87.33;101264.38;5000852;28;20244;-52
2022/05/05 01:33:40;;;;;;;7.20;5.05;;;;;;;13.50;87.16;101261.78;5002236;28;20234;-51
2022/05/05 01:36:07;;;;;;;4.95;4.47;;;;;;;13.47;87.36;101260.03;5009225;28;20237;-53
2022/05/05 01:38:39;;;;;;;4.70;4.38;;;;;;;13.43;87.49;101266.19;4995073;28;20238;-51
2022/05/05 01:41:06;;;;;;;5.05;4.55;;;;;;;13.48;87.09;101269.72;5001903;28;20307;-52
2022/05/05 01:43:32;;;;;;;6.50;5.50;;;;;;;13.47;88.01;101262.66;5004276;28;20229;-52
2022/05/05 01:45:59;;;;;;;5.85;5.32;;;;;;;13.44;87.58;101267.06;4998978;28;20237;-52
2022/05/05 01:48:25;;;;;;;8.00;5.03;;;;;;;13.49;86.84;101276.72;5004119;28;20256;-52
2022/05/05 01:50:51;;;;;;;5.95;4.50;;;;;;;13.45;87.24;101268.84;5007256;28;20229;-51
2022/05/05 01:53:18;;;;;;;6.63;4.25;;;;;;;13.36;88.32;101269.75;5011223;28;20229;-54
2022/05/05 01:55:46;;;;;;;5.50;4.75;;;;;;;13.43;88.79;101281.16;5002123;28;20887;-52
2022/05/05 01:58:12;;;;;;;8.02;5.80;;;;;;;13.31;88.76;101285.59;5006010;28;20237;-52
2022/05/05 02:00:39;;;;;;;5.63;5.10;;;;;;;13.25;90.36;101292.66;5003478;28;20261;-53
2022/05/05 02:03:12;;;;;;;5.57;5.07;;;;;;;13.27;90.43;101296.16;5009180;28;20316;-52
2022/05/05 02:05:39;;;;;;;6.72;5.20;;;;;;;13.21;90.98;101302.28;5001705;28;20670;-51
2022/05/05 02:08:06;;;;;;;7.38;5.72;;;;;;;13.21;91.69;101301.41;5002018;28;20225;-51
2022/05/05 02:10:32;;;;;;;8.20;5.45;;;;;;;13.18;91.70;101294.38;5004495;28;20267;-51
2022/05/05 02:13:00;;;;;;;7.68;5.55;;;;;;;13.11;92.37;101290.00;5003917;28;20260;-53
2022/05/05 02:15:27;;;;;;;9.95;5.60;;;;;;;13.06;93.10;101297.94;5002341;28;20234;-53
2022/05/05 02:17:53;;;;;;;6.55;5.72;;;;;;;13.12;92.79;101312.84;4996022;28;20242;-53
2022/05/05 02:20:20;;;;;;;10.40;6.03;;;;;;;13.09;93.28;101311.13;4998484;28;20827;-52
2022/05/05 02:22:46;;;;;;;8.85;5.53;;;;;;;13.09;95.44;101312.84;5006515;28;20349;-53
2022/05/05 02:25:12;;;;;;;6.35;5.75;;;;;;;13.03;95.73;101324.31;5003315;28;20237;-53
2022/05/05 02:27:49;;;;;;;6.15;5.55;;;;;;;12.93;96.10;101321.69;5001614;28;20731;-51
2022/05/05 02:30:17;;;;;;;7.68;6.65;;;;;;;12.83;98.29;101324.31;5004704;28;20320;-51
2022/05/05 02:32:43;;;;;;;6.43;5.78;;;;;;;12.78;98.49;101326.09;5001000;28;20291;-53
2022/05/05 02:35:10;;;;;;;8.90;6.22;;;;;;;12.76;98.79;101329.59;5003586;28;20279;-52
2022/05/05 02:40:20;;;;;;;5.63;5.13;;;;;;;12.66;100.00;101336.63;4998521;28;20723;-53
2022/05/05 02:42:46;;;;;;;9.05;6.20;;;;;;;12.66;100.00;101339.25;5012373;28;20240;-52
2022/05/05 02:45:13;;;;;;;7.03;6.30;;;;;;;12.68;100.00;101341.91;5002007;28;20310;-52
2022/05/05 02:47:40;;;;;;;8.15;6.30;;;;;;;12.66;100.00;101333.97;5005948;28;20252;-53
2022/05/05 02:50:08;;;;;;;8.32;6.05;;;;;;;12.67;100.00;101335.75;4997328;28;20233;-52
2022/05/05 02:52:34;;;;;;;10.30;6.05;;;;;;;12.66;100.00;101337.50;5004524;28;20715;-53
2022/05/05 02:55:02;;;;;;;8.25;6.95;;;;;;;12.64;100.00;101341.03;5011011;28;20718;-51
2022/05/05 02:57:28;;;;;;;6.70;5.68;;;;;;;12.63;100.00;101339.25;4992334;28;20238;-51
2022/05/05 02:59:55;;;;;;;7.95;6.93;;;;;;;12.63;100.00;101349.78;5000267;28;20287;-51
2022/05/05 03:02:22;;;;;;;6.82;6.25;;;;;;;12.58;100.00;101347.16;4991271;28;20243;-51
2022/05/05 03:04:49;;;;;;;6.22;5.45;;;;;;;12.58;100.00;101341.00;4995408;28;20364;-52
2022/05/05 03:07:16;;;;;;;8.45;7.10;;;;;;;12.54;100.00;101348.03;5000843;28;20245;-52
2022/05/05 03:09:43;;;;;;;6.88;6.28;;;;;;;12.51;100.00;101350.66;5000663;28;20730;-52
2022/05/05 03:12:10;;;;;;;8.60;7.20;;;;;;;12.53;100.00;101355.91;5001358;28;20649;-52
2022/05/05 03:14:37;;;;;;;7.95;6.28;;;;;;;12.52;100.00;101354.19;5001709;28;20267;-52
2022/05/05 03:17:04;;;;;;;7.55;6.18;;;;;;;12.56;100.00;101361.19;5002422;28;20238;-52
2022/05/05 03:19:30;;;;;;;7.82;7.07;;;;;;;12.55;100.00;101362.97;5005097;28;20260;-55
2022/05/05 03:21:58;;;;;;;7.85;6.93;;;;;;;12.55;100.00;101360.31;5010733;28;20229;-52
2022/05/05 03:24:25;;;;;;;7.38;6.45;;;;;;;12.56;100.00;101369.09;4997200;28;20253;-53
2022/05/05 03:26:51;;;;;;;8.55;6.57;;;;;;;12.52;100.00;101365.59;4995931;28;20320;-52
2022/05/05 03:29:17;;;;;;;8.07;6.75;;;;;;;12.53;100.00;101374.34;5002295;28;20233;-51
2022/05/05 03:31:44;;;;;;;7.57;6.50;;;;;;;12.46;100.00;101373.50;5004864;28;20648;-52
2022/05/05 03:34:10;;;;;;;8.52;6.88;;;;;;;12.39;100.00;101366.47;5000731;28;20284;-51
2022/05/05 03:36:37;;;;;;;7.35;6.65;;;;;;;12.34;100.00;101384.88;4997807;28;20318;-52
2022/05/05 03:39:05;;;;;;;9.05;6.82;;;;;;;12.35;100.00;101378.72;4998630;28;20247;-53
2022/05/05 03:41:32;;;;;;;8.70;7.40;;;;;;;12.31;100.00;101379.59;5003682;28;20280;-53
2022/05/05 03:43:58;;;;;;;7.10;6.50;;;;;;;12.32;100.00;101384.00;5005259;28;20225;-53
2022/05/05 03:46:25;;;;;;;7.63;6.93;;;;;;;12.33;100.00;101383.13;4997955;28;20236;-52
2022/05/05 03:48:52;;;;;;;11.48;6.80;;;;;;;12.39;100.00;101377.00;4994006;28;20228;-52
2022/05/05 03:51:18;;;;;;;7.07;6.38;;;;;;;12.39;100.00;101372.59;5000248;28;20229;-53
2022/05/05 03:53:45;;;;;;;9.68;6.88;;;;;;;12.38;100.00;101370.81;5002818;28;20758;-52
2022/05/05 03:56:13;;;;;;;8.90;6.45;;;;;;;12.42;100.00;101376.97;5001403;28;20234;-54
2022/05/05 03:58:39;;;;;;;9.50;7.32;;;;;;;12.45;100.00;101370.84;5003047;28;20326;-53
2022/05/05 04:01:06;;;;;;;8.13;6.75;;;;;;;12.45;100.00;101370.84;5003430;28;20269;-53
2022/05/05 04:03:32;;;;;;;7.13;6.40;;;;;;;12.48;100.00;101366.47;5003046;28;20299;-51
2022/05/05 04:05:59;;;;;;;8.38;7.53;;;;;;;12.45;100.00;101368.22;5002463;28;20237;-53
2022/05/05 04:08:25;;;;;;;6.78;6.10;;;;;;;12.39;100.00;101362.06;4999282;28;20906;-52
2022/05/05 04:10:52;;;;;;;9.32;8.30;;;;;;;12.41;100.00;101360.31;5003253;28;20340;-52
2022/05/05 04:13:20;;;;;;;13.20;7.38;;;;;;;12.34;100.00;101368.19;5008522;28;20241;-52
2022/05/05 04:15:46;;;;;;;8.35;7.47;;;;;;;12.31;100.00;101369.06;4995504;28;20240;-52
2022/05/05 04:18:12;;;;;;;8.57;7.47;;;;;;;12.33;100.00;101362.06;5007193;28;20773;-52
2022/05/05 04:20:39;;;;;;;8.45;7.47;;;;;;;12.29;100.00;101365.56;5000079;28;20241;-51
2022/05/05 04:23:06;;;;;;;7.82;7.03;;;;;;;12.24;100.00;101367.28;5005299;28;20248;-53
2022/05/05 04:25:32;;;;;;;8.18;7.47;;;;;;;12.20;100.00;101376.06;5002266;28;20253;-52
2022/05/05 04:27:59;;;;;;;8.40;7.38;;;;;;;12.22;100.00;101378.72;5001527;28;20290;-53
2022/05/05 04:30:27;;;;;;;8.02;7.25;;;;;;;12.20;100.00;101383.97;5004804;28;20257;-52
2022/05/05 04:32:53;;;;;;;9.25;8.02;;;;;;;12.24;100.00;101387.47;5009605;28;20637;-52
2022/05/05 04:35:20;;;;;;;11.75;8.57;;;;;;;12.32;100.00;101391.91;5003235;28;20324;-54
2022/05/05 04:37:47;;;;;;;10.32;9.02;;;;;;;12.39;100.00;101398.06;5007110;28;20237;-52
2022/05/05 04:40:13;;;;;;;9.35;7.85;;;;;;;12.40;100.00;101410.34;5011147;28;20225;-53
2022/05/05 04:42:39;;;;;;;10.40;8.27;;;;;;;12.29;100.00;101409.44;5008098;28;20283;-53
2022/05/05 04:45:07;;;;;;;8.30;7.50;;;;;;;12.33;100.00;101405.94;5001851;28;20307;-53
2022/05/05 04:47:34;;;;;;;8.75;7.75;;;;;;;12.25;100.00;101415.56;4999928;28;20291;-54
2022/05/05 04:50:01;;;;;;;8.98;8.10;;;;;;;12.28;100.00;101421.72;4992872;28;20333;-52
2022/05/05 04:52:27;;;;;;;7.97;6.78;;;;;;;12.23;100.00;101426.09;5003250;28;20237;-51
2022/05/05 04:54:54;;;;;;;9.98;9.00;;;;;;;12.20;100.00;101431.34;5005681;28;20694;-53
2022/05/05 04:57:20;;;;;;;11.80;8.02;;;;;;;12.18;100.00;101436.63;5003000;28;20747;-52
2022/05/05 04:59:47;;;;;;;10.93;8.00;;;;;;;12.13;100.00;101429.56;5001594;28;20633;-52
2022/05/05 05:02:13;;;;;;;8.10;7.25;;;;;;;12.23;100.00;101426.09;4998270;28;20257;-52
2022/05/05 05:04:41;;;;;;;8.27;7.47;;;;;;;12.17;100.00;101426.94;4998475;28;20253;-52
2022/05/05 05:07:07;;;;;;;10.80;7.28;;;;;;;12.22;100.00;101426.97;5000686;28;20332;-53
2022/05/05 05:09:34;;;;;;;12.07;7.95;;;;;;;12.21;100.00;101427.84;5003343;28;20256;-53
2022/05/05 05:12:00;;;;;;;9.10;8.20;;;;;;;12.41;100.00;101431.41;5004419;28;20229;-52
2022/05/05 05:14:27;;;;;;;9.63;7.80;;;;;;;12.36;100.00;101434.94;5005194;28;20259;-52
2022/05/05 05:16:53;;;;;;;10.32;7.53;;;;;;;12.28;100.00;101437.50;5003957;28;20622;-52
2022/05/05 05:19:20;;;;;;;12.65;8.30;;;;;;;12.26;100.00;101426.09;5005136;28;20307;-52
2022/05/05 05:21:48;;;;;;;8.05;7.35;;;;;;;12.31;100.00;101432.25;4998024;28;20542;-53
2022/05/05 05:24:14;;;;;;;8.63;7.50;;;;;;;12.32;100.00;101441.03;5001236;28;20283;-53
2022/05/05 05:26:41;;;;;;;9.23;8.10;;;;;;;12.30;100.00;101446.31;5001753;28;20229;-53
2022/05/05 05:29:07;;;;;;;8.95;7.43;;;;;;;12.31;100.00;101449.81;4999767;28;20248;-52
2022/05/05 05:31:33;;;;;;;8.55;7.75;;;;;;;12.36;100.00;101451.59;5002588;28;20248;-52
2022/05/05 05:34:00;;;;;;;9.90;8.88;;;;;;;12.37;100.00;101470.91;5009704;28;20284;-52
2022/05/05 05:36:26;;;;;;;10.65;8.90;;;;;;;12.29;100.00;101462.97;5002247;28;20241;-52
2022/05/05 05:38:54;;;;;;;8.07;7.35;;;;;;;12.32;100.00;101470.91;5008902;28;20236;-52
2022/05/05 05:41:20;;;;;;;10.52;7.25;;;;;;;12.36;100.00;101474.41;5003070;28;20636;-52
2022/05/05 05:43:47;;;;;;;9.75;7.80;;;;;;;12.33;100.00;101462.13;5002097;28;20225;-51
2022/05/05 05:46:13;;;;;;;10.60;8.38;;;;;;;12.34;100.00;101466.50;4995485;28;20324;-51
2022/05/05 05:48:40;;;;;;;14.90;9.65;;;;;;;12.28;100.00;101469.09;5004300;28;20309;-52
2022/05/05 05:51:07;;;;;;;10.65;7.93;;;;;;;12.36;100.00;101475.28;5004606;28;20243;-51
2022/05/05 05:53:33;;;;;;;9.73;8.50;;;;;;;12.42;100.00;101482.31;5010159;28;20229;-52
2022/05/05 05:56:01;;;;;;;9.63;8.65;;;;;;;12.43;100.00;101486.75;4998250;28;20232;-53
2022/05/05 05:58:27;;;;;;;10.07;7.50;;;;;;;12.53;100.00;101487.63;5007811;28;20260;-53
2022/05/05 06:00:54;;;;;;;8.80;7.90;;;;;;;12.53;100.00;101495.53;4990605;28;20291;-53
2022/05/05 06:06:04;;;;;;;12.32;7.20;;;;;;;12.55;100.00;101504.31;5002906;28;20650;-52
2022/05/05 06:08:31;;;;;;;10.25;6.97;;;;;;;12.49;100.00;101496.41;5000541;28;20291;-52
2022/05/05 06:10:58;;;;;;;11.45;8.00;;;;;;;12.49;100.00;101505.16;5003557;28;20241;-52
2022/05/05 06:13:26;;;;;;;8.95;7.95;;;;;;;12.56;100.00;101506.06;4999022;28;21054;-54
2022/05/05 06:15:52;;;;;;;10.25;7.22;;;;;;;12.64;100.00;101514.91;4999063;28;20240;-52
2022/05/05 06:18:19;;;;;;;7.93;7.13;;;;;;;12.69;100.00;101501.72;5005520;28;20740;-51
2022/05/05 06:20:45;;;;;;;9.38;8.43;;;;;;;12.78;100.00;101505.28;4994200;28;20596;-53
2022/05/05 06:23:12;;;;;;;10.30;7.30;;;;;;;12.74;100.00;101503.53;4998739;28;20229;-54
2022/05/05 06:25:39;;;;;;;8.15;7.35;;;;;;;12.72;100.00;101505.25;5005256;28;20734;-53
2022/05/05 06:28:05;;;;;;;9.23;6.85;;;;;;;12.68;100.00;101507.88;4995946;28;20232;-53
2022/05/05 06:30:33;;;;;;;9.45;7.53;;;;;;;12.75;100.00;101509.66;5001128;28;20244;-53
2022/05/05 06:33:00;;;;;;;11.18;7.93;;;;;;;12.74;100.00;101514.06;5002364;28;20237;-53
2022/05/05 06:35:28;;;;;;;9.45;7.90;;;;;;;12.81;100.00;101515.84;5003637;28;20245;-52
2022/05/05 06:37:54;;;;;;;8.07;7.32;;;;;;;12.85;99.91;101520.22;5003709;28;20319;-52
2022/05/05 06:40:20;;;;;;;10.60;7.72;;;;;;;12.92;99.17;101526.41;5002878;28;20287;-51
2022/05/05 06:42:48;;;;;;;9.93;8.15;;;;;;;13.04;97.69;101525.53;4992088;28;20995;-51
2022/05/05 06:45:14;;;;;;;10.85;8.13;;;;;;;12.98;98.01;101528.13;4999606;28;20239;-52
2022/05/05 06:47:42;;;;;;;9.57;7.80;;;;;;;13.17;98.51;101531.72;4998000;28;20292;-50
2022/05/05 06:50:10;;;;;;;13.93;8.52;;;;;;;13.29;98.46;101543.16;4994999;28;20292;-51
2022/05/05 06:52:37;;;;;;;8.48;7.65;;;;;;;13.38;96.11;101529.13;4999433;28;20629;-52
2022/05/05 06:55:04;;;;;;;11.35;8.30;;;;;;;13.41;96.20;101541.41;4999901;28;20241;-53
2022/05/05 06:57:30;;;;;;;19.63;7.63;;;;;;;13.33;96.29;101539.63;4997876;28;20225;-52
2022/05/05 06:59:57;;;;;;;8.30;7.50;;;;;;;13.29;97.85;101544.91;5005260;28;20271;-52
2022/05/05 07:02:22;;;;;;;9.07;7.35;;;;;;;13.23;98.32;101548.41;4998247;28;20237;-53
2022/05/05 07:07:36;;;;;;;9.05;7.57;;;;;;;13.18;97.21;101554.53;4994275;28;20235;-53
2022/05/05 07:12:46;;;;;;;7.93;7.13;;;;;;;13.23;97.25;101552.78;4987798;28;20298;-53
2022/05/05 07:15:13;;;;;;;10.00;7.55;;;;;;;13.34;96.36;101559.88;5000697;28;20222;-52
2022/05/05 07:17:40;;;;;;;12.90;7.13;;;;;;;13.33;96.85;101549.31;4987118;28;20248;-51
2022/05/05 07:20:09;;;;;;;8.63;7.68;;;;;;;13.36;97.32;101555.47;4995517;28;20914;-52
2022/05/05 07:22:36;;;;;;;12.50;8.13;;;;;;;13.49;96.46;101552.84;4990165;28;20707;-53
2022/05/05 07:25:03;;;;;;;8.45;7.55;;;;;;;13.59;96.15;101558.13;5007026;28;20613;-53
2022/05/05 07:27:29;;;;;;;8.00;7.28;;;;;;;13.66;96.24;101564.28;4995522;28;20311;-55
2022/05/05 07:29:56;;;;;;;9.23;7.88;;;;;;;13.69;95.74;101564.28;5008541;28;20319;-53
2022/05/05 07:32:22;;;;;;;9.13;7.43;;;;;;;13.92;94.72;101563.38;5012903;28;20321;-51
2022/05/05 07:34:48;;;;;;;8.07;7.32;;;;;;;13.90;93.09;101573.03;5004401;28;20232;-52
2022/05/05 07:37:16;;;;;;;8.65;7.55;;;;;;;14.24;91.61;101572.09;5002523;28;20283;-52
2022/05/05 07:39:42;;;;;;;10.05;8.10;;;;;;;14.38;90.41;101571.19;5005537;28;20269;-52
2022/05/05 07:42:09;;;;;;;13.73;7.93;;;;;;;14.68;88.83;101581.69;4991038;28;20257;-52
2022/05/05 07:44:35;;;;;;;10.50;7.75;;;;;;;14.94;86.65;101575.38;5003159;28;20242;-53
2022/05/05 07:47:02;;;;;;;8.15;7.35;;;;;;;15.05;85.94;101573.53;4999168;28;20232;-52
2022/05/05 07:49:28;;;;;;;9.32;7.82;;;;;;;15.20;84.98;101583.19;5008662;28;20743;-51
2022/05/05 07:51:55;;;;;;;10.25;6.80;;;;;;;15.33;83.04;101576.88;5005781;28;20240;-51
2022/05/05 07:54:43;;;;;;;8.18;6.53;;;;;;;15.20;83.78;101581.41;5001353;28;20229;-51
2022/05/05 07:57:11;;;;;;;8.68;6.60;;;;;;;15.38;83.50;101584.81;5003288;28;20228;-51
2022/05/05 07:59:38;;;;;;;7.63;6.78;;;;;;;15.38;84.07;101584.81;5007136;28;20241;-53
2022/05/05 08:02:08;;;;;;;10.40;7.45;;;;;;;15.39;82.89;101582.16;4995909;28;20786;-53
2022/05/05 08:04:35;;;;;;;8.57;6.70;;;;;;;15.39;82.37;101584.78;4997162;28;20240;-51
2022/05/05 08:07:01;;;;;;;11.50;6.95;;;;;;;15.56;79.47;101589.09;4997040;28;20699;-52
2022/05/05 08:09:29;;;;;;;8.63;7.70;;;;;;;15.45;80.40;101584.75;5005459;28;20699;-52
2022/05/05 08:11:55;;;;;;;9.43;7.20;;;;;;;15.38;81.25;101584.81;5005810;28;20256;-51
2022/05/05 08:14:22;;;;;;;8.30;6.93;;;;;;;15.52;82.26;101583.81;4996315;28;20233;-52
2022/05/05 08:16:48;;;;;;;8.32;7.05;;;;;;;15.59;81.89;101579.34;5000222;28;20246;-51
2022/05/05 08:19:15;;;;;;;7.10;6.40;;;;;;;15.62;80.77;101584.63;5000629;28;20232;-51
2022/05/05 08:21:41;;;;;;;7.38;6.55;;;;;;;15.61;81.09;101593.44;5007789;28;20236;-52
2022/05/05 08:29:37;;;;;;;7.57;6.85;;;;;;;16.12;75.90;101601.84;5000022;28;20607;-51
2022/05/05 08:32:04;;;;;;;9.55;7.00;;;;;;;16.28;76.00;101596.38;5002989;28;20237;-52
2022/05/05 08:34:31;;;;;;;7.55;6.57;;;;;;;16.31;75.53;101597.22;5000885;28;20747;-51
2022/05/05 08:36:57;;;;;;;7.07;6.38;;;;;;;16.50;74.89;101607.63;5003602;28;20859;-53
2022/05/05 08:39:23;;;;;;;8.07;7.07;;;;;;;16.83;73.69;101606.38;5014139;28;20314;-53
2022/05/05 08:41:50;;;;;;;13.70;7.47;;;;;;;16.89;72.47;101608.97;5004519;28;20253;-53
2022/05/05 08:44:17;;;;;;;6.63;6.05;;;;;;;16.99;72.71;101607.03;4999320;28;20319;-52
2022/05/05 08:46:46;;;;;;;8.63;6.10;;;;;;;16.94;71.22;101601.81;5007857;28;20241;-51
2022/05/05 08:49:13;;;;;;;6.70;5.40;;;;;;;16.95;70.99;101598.25;4999450;28;20264;-52
2022/05/05 08:51:43;;;;;;;7.03;6.32;;;;;;;17.06;70.09;101603.41;5007267;28;20456;-52
2022/05/05 08:54:12;;;;;;;7.40;6.75;;;;;;;17.21;69.36;101597.03;5005367;28;20653;-52
2022/05/05 08:56:39;;;;;;;7.50;5.78;;;;;;;17.21;69.15;101603.19;4992003;28;20245;-54
2022/05/05 08:59:07;;;;;;;9.50;5.22;;;;;;;17.31;70.10;101606.59;5003773;28;20328;-53
2022/05/05 09:01:39;;;;;;;8.60;5.90;;;;;;;17.49;68.57;101603.66;4999057;28;20327;-53
2022/05/05 09:04:06;;;;;;;10.82;6.65;;;;;;;17.63;66.03;101611.41;4995720;28;20240;-52
2022/05/05 09:06:43;;;;;;;8.07;5.40;;;;;;;17.68;66.26;101598.03;5003263;28;20339;-51
2022/05/05 09:09:31;;;;;;;5.78;4.95;;;;;;;17.72;66.19;101599.75;4993210;28;20226;-52
2022/05/05 09:12:13;;;;;;;7.10;5.72;;;;;;;17.77;66.26;101600.59;5004218;28;20287;-52
2022/05/05 09:14:43;;;;;;;6.13;5.20;;;;;;;17.99;63.66;101601.97;4985040;28;20226;-55
2022/05/05 09:17:13;;;;;;;7.22;4.75;;;;;;;17.81;63.83;101613.78;4999261;28;20239;-53
2022/05/05 09:19:41;;;;;;;8.65;5.78;;;;;;;17.96;62.48;101615.31;5001660;28;20234;-53
2022/05/05 09:22:09;;;;;;;7.90;5.80;;;;;;;17.94;63.10;101610.94;5009843;28;20416;-53
2022/05/05 09:24:35;;;;;;;6.63;5.70;;;;;;;18.13;61.32;101610.56;4994790;28;20238;-53
2022/05/05 09:27:14;;;;;;;7.03;5.43;;;;;;;18.24;59.99;101609.50;4997098;28;20283;-53
2022/05/05 09:29:41;;;;;;;7.22;4.82;;;;;;;18.07;60.56;101607.13;4998137;28;20721;-53
2022/05/05 09:32:12;;;;;;;6.28;5.30;;;;;;;17.81;61.37;101612.91;4997608;28;20229;-52
2022/05/05 09:34:39;;;;;;;7.75;5.43;;;;;;;17.83;60.74;101614.66;5003441;28;20726;-51
2022/05/05 09:37:18;;;;;;;6.47;5.43;;;;;;;17.84;60.45;101619.06;4994945;28;20234;-52
2022/05/05 09:39:44;;;;;;;6.40;4.72;;;;;;;18.09;60.22;101615.97;5004142;28;20237;-52
2022/05/05 09:42:11;;;;;;;7.13;5.07;;;;;;;18.38;58.92;101611.88;5002290;28;20236;-52
2022/05/05 09:44:44;;;;;;;9.07;5.20;;;;;;;18.74;56.10;101616.53;4999046;28;20233;-52
2022/05/05 09:47:16;;;;;;;9.45;5.78;;;;;;;18.95;54.37;101625.81;5003405;28;21118;-54
2022/05/05 09:49:57;;;;;;;7.60;4.75;;;;;;;18.97;51.06;101628.44;4994038;28;20225;-53
2022/05/05 09:57:55;;;;;;;7.10;4.53;;;;;;;19.13;49.81;101634.31;5005453;28;20714;-52
2022/05/05 10:00:43;;;;;;;7.13;5.18;;;;;;;19.33;49.39;101639.19;5004600;28;20456;-53
2022/05/05 10:05:57;;;;;;;8.90;4.80;;;;;;;19.33;49.64;101641.84;4984565;28;20615;-52
2022/05/05 10:08:30;;;;;;;7.85;5.35;;;;;;;19.43;49.55;101630.06;4998514;28;20425;-52
2022/05/05 10:10:57;;;;;;;6.38;4.47;;;;;;;19.43;49.29;101636.28;4984008;28;20285;-52
2022/05/05 10:13:24;;;;;;;6.15;5.10;;;;;;;19.82;47.57;101638.94;4995684;28;20237;-52
2022/05/05 10:15:50;;;;;;;7.60;5.35;;;;;;;19.78;48.35;101630.13;4997536;28;20420;-52
2022/05/05 10:18:18;;;;;;;6.75;4.82;;;;;;;19.80;48.51;101632.78;5004059;28;20233;-52
2022/05/05 10:21:00;;;;;;;6.82;4.65;;;;;;;19.81;48.70;101634.53;5003701;28;20300;-52
2022/05/05 10:23:31;;;;;;;7.72;5.00;;;;;;;19.79;48.65;101634.53;4906190;29;20288;-52
2022/05/05 10:25:58;;;;;;;7.40;5.25;;;;;;;19.44;49.00;101630.03;4902327;29;20285;-53
2022/05/05 10:28:41;;;;;;;10.13;5.03;;;;;;;19.44;49.90;101635.34;4904376;29;20300;-53
2022/05/05 10:31:12;;;;;;;8.35;5.25;;;;;;;19.51;49.99;101631.63;4904360;29;20236;-52
2022/05/05 10:34:01;;;;;;;7.90;4.88;;;;;;;19.83;47.94;101632.69;4926531;29;20706;-52
2022/05/05 10:36:28;;;;;;;8.23;5.43;;;;;;;20.07;46.57;101638.31;4923888;29;20242;-52
2022/05/05 10:38:55;;;;;;;5.05;4.53;;;;;;;20.11;47.95;101639.97;4924734;29;20236;-53
2022/05/05 10:41:39;;;;;;;8.52;4.90;;;;;;;20.19;46.11;101635.34;4923080;29;20247;-53
2022/05/05 10:44:24;;;;;;;6.88;4.30;;;;;;;20.19;45.25;101638.00;4916844;29;20745;-52
2022/05/05 10:46:55;;;;;;;5.13;4.47;;;;;;;19.86;46.27;101647.72;4932473;29;20295;-54
2022/05/05 10:49:47;;;;;;;5.55;4.72;;;;;;;19.59;46.67;101641.25;4941898;29;20246;-52
2022/05/05 10:52:32;;;;;;;9.32;4.07;;;;;;;19.32;49.61;101635.66;4930168;28;20255;-52
2022/05/05 10:55:26;;;;;;;10.50;5.70;;;;;;;19.12;46.88;101644.09;4937539;29;20239;-51
2022/05/05 10:57:52;;;;;;;7.75;5.43;;;;;;;20.11;44.99;101639.97;4929771;29;20705;-51
2022/05/05 11:00:19;;;;;;;5.15;4.72;;;;;;;20.60;43.82;101642.22;4956929;28;20246;-53
2022/05/05 11:03:15;;;;;;;6.63;4.72;;;;;;;20.36;44.73;101645.53;5006271;28;20324;-52
2022/05/05 11:05:44;;;;;;;5.60;4.70;;;;;;;19.65;46.14;101643.78;4996416;28;20729;-52
2022/05/05 11:08:33;;;;;;;8.15;4.50;;;;;;;19.60;46.14;101641.22;4998589;28;20247;-51
2022/05/05 11:13:45;;;;;;;6.65;5.10;;;;;;;19.48;46.15;101642.38;5011266;28;20333;-52
2022/05/05 11:22:10;;;;;;;8.55;5.10;;;;;;;20.33;44.68;101649.16;5005124;28;20726;-53
2022/05/05 11:24:36;;;;;;;5.45;4.53;;;;;;;20.10;44.51;101646.22;4997090;28;20268;-51
2022/05/05 11:27:03;;;;;;;7.60;4.53;;;;;;;19.66;46.01;101640.25;5008773;28;20225;-52
2022/05/05 11:29:30;;;;;;;6.82;4.68;;;;;;;19.55;47.13;101649.31;5008779;28;20275;-52
2022/05/05 11:31:58;;;;;;;6.38;5.10;;;;;;;19.57;46.65;101651.06;5015090;28;20256;-52
2022/05/05 11:34:30;;;;;;;7.85;4.90;;;;;;;19.20;47.89;101652.78;5001946;28;20240;-55
2022/05/05 11:36:58;;;;;;;7.47;5.03;;;;;;;18.84;48.43;101647.31;5004193;28;20225;-52
2022/05/05 11:39:26;;;;;;;8.60;5.68;;;;;;;18.50;50.43;101647.13;4998842;28;20759;-52
2022/05/05 11:42:02;;;;;;;7.70;4.80;;;;;;;18.42;51.63;101654.34;5007223;28;20245;-52
2022/05/05 11:44:28;;;;;;;8.93;4.75;;;;;;;19.00;49.93;101655.88;5002712;28;20237;-52
2022/05/05 11:46:57;;;;;;;8.32;5.13;;;;;;;19.52;48.45;101660.06;5010666;28;20606;-53
2022/05/05 11:49:25;;;;;;;7.57;5.22;;;;;;;20.29;46.22;101665.28;5001846;28;20225;-52
2022/05/05 11:51:53;;;;;;;7.65;5.13;;;;;;;20.53;45.76;101655.78;5001418;28;20237;-52
2022/05/05 11:54:27;;;;;;;6.75;5.18;;;;;;;20.98;43.53;101667.78;5001533;28;20252;-58
2022/05/05 11:56:54;;;;;;;6.85;5.43;;;;;;;21.59;41.69;101665.09;5012349;28;20323;-53
2022/05/05 12:02:09;;;;;;;6.57;4.00;;;;;;;20.81;43.78;101659.41;5005854;28;20344;-53
2022/05/05 12:04:36;;;;;;;9.75;5.07;;;;;;;21.06;43.14;101661.34;4995084;28;20237;-53
2022/05/05 12:07:04;;;;;;;8.82;4.97;;;;;;;21.01;42.99;101664.16;5006627;28;20229;-53
2022/05/05 12:09:32;;;;;;;5.03;4.18;;;;;;;20.83;42.79;101662.91;5007232;28;20225;-53